Time;durP1;ratioP1;P1;durP2;ratioP2;P2;SDS_P1;SDS_P2;PMS_P1;PMS_P2;Temp;Humidity;BMP_temperature;BMP_pressure;BME280_temperature;BME280_humidity;BME280_pressure;Samples;Min_cycle;Max_cycle;Signal;HPM_P1;HPM_P2
2022/11/05 00:09:45;;;;;;;5.20;3.70;;;;;;;8.79;100.00;153616.25;5073432;28;20489;-91
2022/11/05 00:18:37;;;;;;;4.03;2.90;;;;;;;8.72;100.00;153599.44;5074026;28;20461;-90
2022/11/05 00:27:28;;;;;;;3.53;2.90;;;;;;;8.74;100.00;153603.28;5073469;28;20477;-90
2022/11/05 00:30:17;;;;;;;2.50;2.07;;;;;;;8.72;100.00;153598.13;5073169;28;20453;-90
2022/11/05 00:33:02;;;;;;;3.90;2.60;;;;;;;8.73;100.00;153602.03;5071814;28;20461;-90
2022/11/05 00:35:49;;;;;;;5.80;2.30;;;;;;;8.74;100.00;153603.28;5060788;28;20404;-90
2022/11/05 00:38:34;;;;;;;3.33;2.33;;;;;;;8.75;100.00;153605.91;5054249;28;20426;-90
2022/11/05 00:41:19;;;;;;;3.23;1.73;;;;;;;8.75;100.00;153605.91;5055810;28;20429;-90
2022/11/05 00:50:09;;;;;;;2.60;1.70;;;;;;;8.76;100.00;153609.81;5058395;28;20895;-90
2022/11/05 00:52:58;;;;;;;3.27;1.70;;;;;;;8.76;100.00;153608.50;5071178;28;20586;-90
2022/11/05 00:55:45;;;;;;;2.50;2.23;;;;;;;8.73;100.00;153600.72;5072869;28;20448;-91
2022/11/05 00:58:30;;;;;;;2.57;1.60;;;;;;;8.74;100.00;153603.28;5074085;28;20430;-90
2022/11/05 01:01:15;;;;;;;3.40;2.23;;;;;;;8.73;100.00;153600.72;5072548;28;20449;-91
2022/11/05 01:04:00;;;;;;;2.17;1.60;;;;;;;8.70;100.00;153594.28;5068455;28;20452;-90
2022/11/05 01:06:46;;;;;;;2.23;1.60;;;;;;;8.69;100.00;153590.38;5073335;28;20425;-90
2022/11/05 01:09:33;;;;;;;2.97;2.07;;;;;;;8.70;100.00;153592.97;5062301;28;20476;-91
2022/11/05 01:12:18;;;;;;;2.60;1.67;;;;;;;8.72;100.00;153598.13;5072245;28;20599;-90
2022/11/05 01:15:04;;;;;;;2.00;1.53;;;;;;;8.73;100.00;153602.03;5065073;28;20433;-90
2022/11/05 01:17:50;;;;;;;3.10;2.00;;;;;;;8.72;100.00;153598.13;5072763;28;21027;-90
2022/11/05 01:20:35;;;;;;;2.30;1.77;;;;;;;8.68;100.00;153587.81;5072772;28;20464;-90
2022/11/05 01:23:21;;;;;;;1.80;1.40;;;;;;;8.70;100.00;153592.97;5069023;28;20786;-90
2022/11/05 01:26:08;;;;;;;2.73;1.73;;;;;;;8.67;100.00;153586.50;5071529;28;20429;-89
2022/11/05 01:28:53;;;;;;;3.30;1.60;;;;;;;8.68;100.00;153587.81;5071897;28;20469;-89
2022/11/05 01:31:39;;;;;;;2.23;1.57;;;;;;;8.66;100.00;153583.91;5070714;28;20464;-90
2022/11/05 01:34:24;;;;;;;1.83;1.50;;;;;;;8.68;100.00;153587.81;5073183;28;20425;-90
2022/11/05 01:37:09;;;;;;;2.70;1.50;;;;;;;8.67;100.00;153585.22;5071844;28;20469;-90
2022/11/05 01:39:55;;;;;;;3.00;1.30;;;;;;;8.65;100.00;153581.34;5058623;28;20876;-90
2022/11/05 01:42:42;;;;;;;2.10;1.67;;;;;;;8.62;100.00;153572.28;5056023;28;20449;-90
2022/11/05 01:45:28;;;;;;;1.93;1.50;;;;;;;8.63;100.00;153574.88;5072321;28;20453;-90
2022/11/05 01:48:16;;;;;;;2.13;1.93;;;;;;;8.67;100.00;153585.22;5068060;28;20539;-90
2022/11/05 01:51:04;;;;;;;3.50;2.10;;;;;;;8.63;100.00;153574.88;5055815;28;20461;-90
2022/11/05 01:53:52;;;;;;;4.00;2.17;;;;;;;8.64;100.00;153577.44;5052874;28;20434;-90
2022/11/05 01:56:41;;;;;;;2.40;1.83;;;;;;;8.64;100.00;153577.44;5068898;28;20503;-90
2022/11/05 01:59:30;;;;;;;2.33;1.87;;;;;;;8.66;100.00;153582.66;5072112;28;20429;-89
2022/11/05 02:02:16;;;;;;;2.23;1.63;;;;;;;8.63;100.00;153576.13;5050430;28;20445;-89
2022/11/05 02:05:04;;;;;;;2.80;2.30;;;;;;;8.62;100.00;153573.59;5070406;28;20504;-89
2022/11/05 02:07:49;;;;;;;2.00;1.50;;;;;;;8.64;100.00;153577.44;5072480;28;20440;-89
2022/11/05 02:10:34;;;;;;;1.83;1.60;;;;;;;8.63;100.00;153574.88;5064129;28;20497;-89
2022/11/05 02:13:19;;;;;;;4.90;1.90;;;;;;;8.61;100.00;153570.97;5055446;28;20519;-89
2022/11/05 02:16:12;;;;;;;2.40;1.70;;;;;;;8.61;100.00;153569.69;5067922;28;20515;-89
2022/11/05 02:19:01;;;;;;;2.63;1.60;;;;;;;8.62;100.00;153573.59;5071249;28;20495;-89
2022/11/05 02:22:01;;;;;;;2.20;1.70;;;;;;;8.61;100.00;153570.97;5069602;28;20441;-88
2022/11/05 02:24:57;;;;;;;2.30;1.50;;;;;;;8.62;100.00;153573.59;5071113;28;20577;-89
2022/11/05 02:28:00;;;;;;;2.27;1.33;;;;;;;8.61;100.00;153569.69;5072762;28;20584;-89
2022/11/05 02:30:49;;;;;;;1.83;1.60;;;;;;;8.60;100.00;153567.13;5071669;28;20825;-88
2022/11/05 02:33:39;;;;;;;1.97;1.30;;;;;;;8.63;100.00;153574.88;5067989;28;20449;-88
2022/11/05 02:36:32;;;;;;;1.97;1.63;;;;;;;8.61;100.00;153569.69;5070835;28;20907;-89
2022/11/05 02:39:27;;;;;;;2.30;1.40;;;;;;;8.65;100.00;153581.34;5070195;28;20595;-89
2022/11/05 02:42:18;;;;;;;1.80;1.40;;;;;;;8.63;100.00;153576.13;5068495;28;21046;-89
2022/11/05 02:45:08;;;;;;;3.70;1.57;;;;;;;8.63;100.00;153574.88;5072208;28;20472;-89
2022/11/05 02:47:59;;;;;;;2.13;1.40;;;;;;;8.63;100.00;153574.88;5071142;28;20448;-89
2022/11/05 02:50:49;;;;;;;1.93;1.47;;;;;;;8.64;100.00;153577.44;5060911;28;20461;-89
2022/11/05 02:53:40;;;;;;;1.80;1.47;;;;;;;8.65;100.00;153580.03;5051957;28;20425;-89
2022/11/05 02:56:29;;;;;;;2.17;1.40;;;;;;;8.65;100.00;153580.03;5051916;28;20493;-89
2022/11/05 02:59:14;;;;;;;2.50;1.53;;;;;;;8.64;100.00;153577.44;5050741;28;20488;-89
2022/11/05 03:02:00;;;;;;;2.53;1.47;;;;;;;8.60;100.00;153567.13;5057165;28;20403;-89
2022/11/05 03:04:46;;;;;;;2.47;1.73;;;;;;;8.63;100.00;153574.88;5072637;28;20551;-89
2022/11/05 03:07:39;;;;;;;2.87;1.70;;;;;;;8.62;100.00;153572.28;5069866;28;20457;-89
2022/11/05 03:10:39;;;;;;;2.20;1.50;;;;;;;8.64;100.00;153577.44;5057914;28;20476;-89
2022/11/05 03:13:31;;;;;;;1.90;1.33;;;;;;;8.62;100.00;153573.59;5056088;28;20488;-89
2022/11/05 03:16:19;;;;;;;2.50;1.47;;;;;;;8.65;100.00;153580.03;5062550;28;20445;-88
2022/11/05 03:19:08;;;;;;;2.37;1.90;;;;;;;8.62;100.00;153573.59;5069398;28;20452;-89
2022/11/05 03:21:58;;;;;;;2.20;1.60;;;;;;;8.62;100.00;153572.28;5061319;28;20429;-89
2022/11/05 03:24:46;;;;;;;2.53;1.50;;;;;;;8.63;100.00;153576.13;5071735;28;20492;-88
2022/11/05 03:27:35;;;;;;;2.50;1.80;;;;;;;8.64;100.00;153578.75;5069933;28;20449;-88
2022/11/05 03:30:20;;;;;;;2.20;1.90;;;;;;;8.64;100.00;153577.44;5071559;28;20425;-88
2022/11/05 03:33:09;;;;;;;2.33;1.50;;;;;;;8.64;100.00;153578.75;5070811;28;20983;-88
2022/11/05 03:35:57;;;;;;;2.60;1.70;;;;;;;8.64;100.00;153577.44;5069047;28;20453;-88
2022/11/05 03:38:47;;;;;;;2.00;1.63;;;;;;;8.63;100.00;153574.88;5065560;28;20654;-88
2022/11/05 03:41:33;;;;;;;2.37;1.73;;;;;;;8.63;100.00;153574.88;5072177;28;20406;-88
2022/11/05 03:44:22;;;;;;;2.57;1.90;;;;;;;8.65;100.00;153581.34;5069618;28;21221;-88
2022/11/05 03:47:11;;;;;;;3.50;1.60;;;;;;;8.64;100.00;153578.75;5071787;28;20499;-88
2022/11/05 03:50:01;;;;;;;2.20;1.47;;;;;;;8.63;100.00;153576.13;5074207;28;20449;-89
2022/11/05 03:52:51;;;;;;;2.80;1.73;;;;;;;8.62;100.00;153572.28;5071547;28;20652;-90
2022/11/05 03:55:43;;;;;;;1.67;1.37;;;;;;;8.64;100.00;153577.44;5057871;28;20413;-90
2022/11/05 03:58:29;;;;;;;2.37;1.90;;;;;;;8.64;100.00;153577.44;5074236;28;20440;-89
2022/11/05 04:01:14;;;;;;;2.50;1.60;;;;;;;8.65;100.00;153580.03;5074872;28;20394;-88
2022/11/05 04:04:00;;;;;;;2.73;1.80;;;;;;;8.64;100.00;153577.44;5073214;28;20448;-87
2022/11/05 04:13:24;;;;;;;2.30;1.80;;;;;;;8.63;100.00;153574.88;4971293;28;20500;-87
2022/11/05 04:24:06;;;;;;;3.03;1.90;;;;;;;8.62;100.00;153572.28;5056802;28;20449;-88
2022/11/05 04:25:22;;;;;;;2.60;2.00;;;;;;;8.58;100.00;153564.53;5075667;28;20764;-88
2022/11/05 04:28:09;;;;;;;3.77;2.17;;;;;;;8.60;100.00;153567.13;5076605;28;20484;-88
2022/11/05 04:30:53;;;;;;;2.67;1.97;;;;;;;8.58;100.00;153564.53;5072572;28;20547;-88
2022/11/05 04:33:39;;;;;;;2.70;1.97;;;;;;;8.57;100.00;153561.97;5076443;28;20455;-88
2022/11/05 04:36:24;;;;;;;3.23;2.27;;;;;;;8.58;100.00;153564.53;5077901;28;20413;-87
2022/11/05 04:39:09;;;;;;;3.03;2.60;;;;;;;8.55;100.00;153556.75;5077313;28;20448;-87
2022/11/05 04:41:57;;;;;;;3.43;2.13;;;;;;;8.56;100.00;153559.38;5077088;28;20471;-87
2022/11/05 04:44:44;;;;;;;2.20;1.90;;;;;;;8.55;100.00;153556.75;5079198;28;20460;-86
2022/11/05 04:47:29;;;;;;;3.20;2.33;;;;;;;8.55;100.00;153555.50;5077201;28;20461;-85
2022/11/05 04:50:15;;;;;;;3.03;2.03;;;;;;;8.55;100.00;153555.50;5077104;28;20429;-86
2022/11/05 04:53:00;;;;;;;3.87;2.00;;;;;;;8.52;100.00;153549.00;5074469;28;20456;-86
2022/11/05 04:55:45;;;;;;;2.97;1.87;;;;;;;8.50;100.00;153543.84;5072908;28;20789;-86
2022/11/05 04:58:30;;;;;;;2.10;1.80;;;;;;;8.51;100.00;153546.44;5072445;28;20799;-86
2022/11/05 05:01:18;;;;;;;2.00;1.70;;;;;;;8.50;100.00;153543.84;5074835;28;20442;-87
2022/11/05 05:04:04;;;;;;;1.50;1.23;;;;;;;8.47;100.00;153536.06;5072599;28;20434;-87
2022/11/05 05:06:49;;;;;;;3.63;1.63;;;;;;;8.44;100.00;153528.34;5069942;28;20799;-87
2022/11/05 05:09:35;;;;;;;2.57;1.43;;;;;;;8.45;100.00;153530.91;5073276;28;20555;-87
2022/11/05 05:12:20;;;;;;;2.50;1.60;;;;;;;8.43;100.00;153525.75;5053649;28;20569;-87
2022/11/05 05:15:07;;;;;;;2.77;1.50;;;;;;;8.42;100.00;153523.16;5063472;28;20947;-88
2022/11/05 05:17:53;;;;;;;1.90;1.43;;;;;;;8.44;100.00;153528.34;5074054;28;20781;-88
2022/11/05 05:23:41;;;;;;;4.10;1.43;;;;;;;8.45;100.00;153530.91;5072147;28;20560;-88
2022/11/05 05:26:27;;;;;;;1.70;1.40;;;;;;;8.43;100.00;153525.75;5064718;28;20497;-88
2022/11/05 05:29:13;;;;;;;2.50;2.13;;;;;;;8.44;100.00;153528.34;5072010;28;20417;-89
2022/11/05 05:31:58;;;;;;;2.73;2.27;;;;;;;8.43;100.00;153524.47;5073269;28;20453;-88
2022/11/05 05:34:45;;;;;;;2.93;2.33;;;;;;;8.43;100.00;153525.75;5069557;28;20440;-88
2022/11/05 05:37:30;;;;;;;3.50;2.60;;;;;;;8.42;100.00;153523.16;5072629;28;20439;-89
2022/11/05 05:40:15;;;;;;;4.60;3.10;;;;;;;8.41;100.00;153520.59;5066065;28;20425;-88
2022/11/05 05:43:00;;;;;;;5.53;3.67;;;;;;;8.41;100.00;153520.59;5064821;28;20579;-89
2022/11/05 05:45:46;;;;;;;5.33;4.03;;;;;;;8.41;100.00;153520.59;5072517;28;20457;-89
2022/11/05 05:48:31;;;;;;;6.47;4.70;;;;;;;8.42;100.00;153523.16;5072541;28;20445;-89
2022/11/05 05:51:18;;;;;;;5.63;4.80;;;;;;;8.41;100.00;153520.59;5070614;28;20591;-89
2022/11/05 05:54:04;;;;;;;5.80;5.07;;;;;;;8.40;100.00;153518.00;5069591;28;20449;-89
2022/11/05 05:56:50;;;;;;;6.60;5.63;;;;;;;8.42;100.00;153523.16;5051785;28;20432;-89
2022/11/05 05:59:35;;;;;;;8.70;6.13;;;;;;;8.41;100.00;153520.59;5056287;28;20468;-89
2022/11/05 06:02:21;;;;;;;7.13;5.20;;;;;;;8.40;100.00;153518.00;5070129;28;20444;-90
2022/11/05 06:05:07;;;;;;;7.70;6.07;;;;;;;8.41;100.00;153519.28;5072390;28;20406;-90
2022/11/05 06:07:57;;;;;;;6.57;5.60;;;;;;;8.39;100.00;153515.38;5072754;28;20487;-90
2022/11/05 06:10:42;;;;;;;8.17;6.20;;;;;;;8.41;100.00;153520.59;5069928;28;20552;-90
2022/11/05 06:13:28;;;;;;;7.77;6.90;;;;;;;8.43;100.00;153524.47;5068971;28;20445;-90
2022/11/05 06:16:13;;;;;;;9.07;6.30;;;;;;;8.45;100.00;153529.63;5065405;28;20441;-90
2022/11/05 06:18:58;;;;;;;6.57;5.90;;;;;;;8.45;100.00;153530.91;5062201;28;20531;-90
2022/11/05 06:21:43;;;;;;;7.63;6.23;;;;;;;8.46;100.00;153532.22;5072025;28;20567;-90
2022/11/05 06:24:30;;;;;;;8.63;7.40;;;;;;;8.43;100.00;153525.75;5071023;28;20451;-90
2022/11/05 06:27:15;;;;;;;9.77;8.03;;;;;;;8.41;100.00;153520.59;5069620;28;20797;-90
2022/11/05 06:30:01;;;;;;;10.50;7.90;;;;;;;8.42;100.00;153523.16;5066490;28;20536;-90
2022/11/05 06:32:46;;;;;;;10.57;7.53;;;;;;;8.43;100.00;153525.75;5070656;28;20473;-90
2022/11/05 06:35:33;;;;;;;10.50;8.50;;;;;;;8.44;100.00;153527.06;5071060;28;20590;-90
2022/11/05 06:38:18;;;;;;;11.20;9.13;;;;;;;8.43;100.00;153525.75;5049783;28;21019;-90
2022/11/05 06:41:05;;;;;;;11.20;9.83;;;;;;;8.46;100.00;153532.22;5055495;28;20801;-90
2022/11/05 06:43:51;;;;;;;13.63;9.33;;;;;;;8.45;100.00;153530.91;5073473;28;20563;-90
2022/11/05 06:46:36;;;;;;;13.60;11.23;;;;;;;8.43;100.00;153525.75;5072849;28;20452;-90
2022/11/05 06:49:23;;;;;;;13.33;11.17;;;;;;;8.42;100.00;153523.16;5052409;28;20398;-90
2022/11/05 06:52:08;;;;;;;13.03;10.37;;;;;;;8.41;100.00;153519.28;5056623;28;20484;-90
2022/11/05 06:54:55;;;;;;;14.60;11.63;;;;;;;8.35;100.00;153505.06;5070903;28;20808;-88
2022/11/05 06:57:42;;;;;;;14.90;11.50;;;;;;;8.36;100.00;153507.69;5070916;28;20784;-90
2022/11/05 07:00:28;;;;;;;15.13;10.70;;;;;;;8.39;100.00;153515.38;5069132;28;20409;-76
2022/11/05 07:03:13;;;;;;;17.27;10.77;;;;;;;8.36;100.00;153507.69;5069517;28;20461;-77
2022/11/05 07:05:59;;;;;;;13.50;11.00;;;;;;;8.34;100.00;153501.22;5065949;28;20441;-77
2022/11/05 07:08:45;;;;;;;12.83;11.00;;;;;;;8.32;100.00;153497.31;5063671;28;20465;-77
2022/11/05 07:11:30;;;;;;;13.43;11.10;;;;;;;8.35;100.00;153505.06;5069112;28;20998;-76
2022/11/05 07:14:16;;;;;;;14.70;10.87;;;;;;;8.39;100.00;153514.13;5067749;28;20812;-76
2022/11/05 07:17:02;;;;;;;14.67;11.13;;;;;;;8.43;100.00;153525.75;5071694;28;20430;-76
2022/11/05 07:19:47;;;;;;;14.97;11.13;;;;;;;8.41;100.00;153520.59;5071732;28;20950;-76
2022/11/05 07:22:33;;;;;;;14.43;11.47;;;;;;;8.41;100.00;153520.59;5070447;28;20551;-76
2022/11/05 07:25:18;;;;;;;17.80;12.43;;;;;;;8.47;100.00;153536.06;5062950;28;20915;-77
2022/11/05 07:28:04;;;;;;;16.50;12.10;;;;;;;8.44;100.00;153528.34;5075448;28;20811;-76
2022/11/05 07:30:51;;;;;;;17.90;11.80;;;;;;;8.49;100.00;153541.28;5061796;28;20877;-76
2022/11/05 07:33:36;;;;;;;18.10;12.37;;;;;;;8.48;100.00;153538.69;5073786;28;20575;-76
2022/11/05 07:36:21;;;;;;;15.67;12.00;;;;;;;8.48;100.00;153537.38;5065470;28;20433;-76
2022/11/05 07:39:07;;;;;;;15.80;11.43;;;;;;;8.47;100.00;153536.06;5067091;28;20886;-76
2022/11/05 07:41:53;;;;;;;14.70;10.87;;;;;;;8.50;100.00;153543.84;5072463;28;20448;-76
2022/11/05 07:44:38;;;;;;;17.63;12.57;;;;;;;8.51;100.00;153546.44;5073265;28;20445;-76
2022/11/05 07:47:25;;;;;;;15.90;11.57;;;;;;;8.45;100.00;153530.91;5074296;28;20773;-76
2022/11/05 07:50:11;;;;;;;18.90;14.10;;;;;;;8.46;100.00;153533.53;5072544;28;20590;-76
2022/11/05 07:53:00;;;;;;;19.40;13.27;;;;;;;8.51;100.00;153546.44;5074232;28;20587;-75
2022/11/05 07:55:46;;;;;;;17.40;13.10;;;;;;;8.53;100.00;153551.59;5074808;28;20519;-76
2022/11/05 07:58:32;;;;;;;17.70;13.93;;;;;;;8.56;100.00;153559.38;5073102;28;20812;-77
2022/11/05 08:01:17;;;;;;;17.27;13.57;;;;;;;8.58;100.00;153564.53;5054225;28;20398;-75
2022/11/05 08:04:04;;;;;;;19.87;13.63;;;;;;;8.60;100.00;153567.13;5045826;28;20526;-76
2022/11/05 08:06:49;;;;;;;15.90;12.27;;;;;;;8.58;100.00;153564.53;5073386;28;20436;-75
2022/11/05 08:09:35;;;;;;;18.60;13.67;;;;;;;8.60;100.00;153567.13;5070055;28;20998;-75
2022/11/05 08:12:20;;;;;;;19.10;12.60;;;;;;;8.58;100.00;153564.53;5072369;28;20469;-76
2022/11/05 08:15:06;;;;;;;16.07;12.30;;;;;;;8.62;100.00;153573.59;5073706;28;20433;-76
2022/11/05 08:17:58;;;;;;;16.17;11.27;;;;;;;8.63;100.00;153576.13;5072979;28;20943;-78
2022/11/05 08:20:45;;;;;;;16.90;11.93;;;;;;;8.64;100.00;153577.44;5054446;28;20410;-76
2022/11/05 08:23:31;;;;;;;15.70;11.97;;;;;;;8.64;100.00;153577.44;5071416;28;20453;-75
2022/11/05 08:26:18;;;;;;;14.00;11.13;;;;;;;8.64;100.00;153577.44;5071059;28;20457;-76
2022/11/05 08:29:03;;;;;;;10.10;7.90;;;;;;;8.58;100.00;153563.22;5074472;28;20457;-76
2022/11/05 08:31:48;;;;;;;11.90;9.23;;;;;;;8.50;100.00;153543.84;5062055;28;20464;-76
2022/11/05 08:34:33;;;;;;;8.53;7.00;;;;;;;8.46;100.00;153533.53;5072010;28;20483;-76
2022/11/05 08:37:20;;;;;;;8.77;7.40;;;;;;;8.40;100.00;153518.00;5056596;28;20947;-75
2022/11/05 08:40:06;;;;;;;8.23;6.80;;;;;;;8.38;100.00;153512.84;5073181;28;20441;-76
2022/11/05 08:42:52;;;;;;;9.00;6.90;;;;;;;8.34;100.00;153502.47;5074370;28;20449;-76
2022/11/05 08:45:37;;;;;;;8.40;6.47;;;;;;;8.25;100.00;153479.19;5071250;28;20592;-76
2022/11/05 08:48:22;;;;;;;7.80;6.80;;;;;;;8.24;100.00;153475.28;5038220;28;20445;-76
2022/11/05 08:51:08;;;;;;;7.50;5.50;;;;;;;8.22;100.00;153471.44;5053233;28;20571;-76
2022/11/05 08:53:55;;;;;;;7.63;6.03;;;;;;;8.16;100.00;153455.91;5066008;28;20485;-76
2022/11/05 08:56:40;;;;;;;5.03;4.17;;;;;;;8.15;100.00;153453.34;5071267;28;20998;-75
2022/11/05 08:59:28;;;;;;;5.50;4.63;;;;;;;8.16;100.00;153455.91;5072302;28;20436;-75
2022/11/05 09:02:13;;;;;;;4.73;4.23;;;;;;;8.18;100.00;153461.06;5070656;28;20449;-76
2022/11/05 09:04:58;;;;;;;4.83;4.00;;;;;;;8.18;100.00;153459.81;5071156;28;20434;-75
2022/11/05 09:07:43;;;;;;;3.80;3.33;;;;;;;8.22;100.00;153471.44;5066833;28;20474;-75
2022/11/05 09:10:30;;;;;;;4.33;3.67;;;;;;;8.25;100.00;153479.19;5053792;28;20521;-76
2022/11/05 09:13:16;;;;;;;4.17;3.50;;;;;;;8.27;100.00;153483.09;5073298;28;20587;-75
2022/11/05 09:16:02;;;;;;;4.23;3.83;;;;;;;8.25;100.00;153479.19;5070552;28;20523;-76
2022/11/05 09:18:48;;;;;;;6.77;4.57;;;;;;;8.31;100.00;153493.47;5072900;28;20801;-75
2022/11/05 09:21:33;;;;;;;4.70;3.60;;;;;;;8.31;100.00;153493.47;5069990;28;20518;-75
2022/11/05 09:24:18;;;;;;;4.43;4.03;;;;;;;8.35;100.00;153503.78;5073324;28;21165;-76
2022/11/05 09:27:05;;;;;;;6.00;4.00;;;;;;;8.43;100.00;153525.75;5047514;28;20458;-75
2022/11/05 09:29:50;;;;;;;5.30;4.70;;;;;;;8.44;100.00;153528.34;5063720;28;20479;-75
2022/11/05 09:32:36;;;;;;;4.43;4.03;;;;;;;8.36;100.00;153507.69;5070294;28;20499;-76
2022/11/05 09:35:21;;;;;;;6.07;4.50;;;;;;;8.43;100.00;153525.75;5072428;28;20903;-76
2022/11/05 09:38:07;;;;;;;5.90;4.93;;;;;;;8.45;100.00;153530.91;5046184;28;20449;-75
2022/11/05 09:40:56;;;;;;;7.90;4.80;;;;;;;8.45;100.00;153529.63;5071593;28;20472;-76
2022/11/05 09:43:44;;;;;;;5.93;4.60;;;;;;;8.50;100.00;153543.84;5063995;28;20540;-76
2022/11/05 09:46:37;;;;;;;5.50;3.93;;;;;;;8.51;100.00;153546.44;5051663;28;20840;-77
2022/11/05 09:49:25;;;;;;;5.50;4.30;;;;;;;8.58;100.00;153564.53;5069489;28;20465;-77
2022/11/05 09:52:14;;;;;;;5.90;4.57;;;;;;;8.40;100.00;153518.00;5069864;28;20928;-76
2022/11/05 09:55:00;;;;;;;6.30;4.60;;;;;;;8.37;100.00;153510.22;5047629;28;20417;-76
2022/11/05 09:57:50;;;;;;;6.33;5.33;;;;;;;8.48;100.00;153537.38;5069040;28;20475;-76
2022/11/05 10:00:37;;;;;;;6.27;5.23;;;;;;;8.42;100.00;153521.84;5072394;28;20884;-76
2022/11/05 10:03:23;;;;;;;10.33;5.57;;;;;;;8.43;100.00;153524.47;5068266;28;20465;-76
2022/11/05 10:06:09;;;;;;;7.67;6.50;;;;;;;8.42;100.00;153523.16;5069566;28;20425;-76
2022/11/05 10:09:01;;;;;;;8.97;6.60;;;;;;;8.52;100.00;153547.75;5066546;28;20433;-76
2022/11/05 10:11:50;;;;;;;8.20;6.73;;;;;;;8.57;100.00;153561.97;5070631;28;20465;-76
2022/11/05 10:14:38;;;;;;;7.90;6.97;;;;;;;8.54;100.00;153552.91;5071279;28;21031;-76
2022/11/05 10:17:27;;;;;;;9.53;7.47;;;;;;;8.58;100.00;153564.53;5072763;28;20434;-76
2022/11/05 10:20:19;;;;;;;9.63;7.53;;;;;;;8.63;100.00;153574.88;5072055;28;20531;-76
2022/11/05 10:23:12;;;;;;;10.27;7.90;;;;;;;8.62;100.00;153572.28;5056486;28;20523;-76
2022/11/05 10:26:02;;;;;;;11.70;8.93;;;;;;;8.68;100.00;153589.13;5053918;28;20512;-76
2022/11/05 10:28:49;;;;;;;8.17;6.70;;;;;;;8.73;100.00;153600.72;5053162;28;20437;-76
2022/11/05 10:31:54;;;;;;;10.90;8.10;;;;;;;8.75;100.00;153607.19;5067652;28;20441;-76
2022/11/05 10:34:50;;;;;;;10.17;7.23;;;;;;;8.79;100.00;153616.25;5038215;28;20469;-76
2022/11/05 10:37:36;;;;;;;9.77;8.40;;;;;;;8.73;100.00;153602.03;5068958;28;20596;-76
2022/11/05 10:40:30;;;;;;;8.70;7.40;;;;;;;8.77;100.00;153612.34;5072229;28;20433;-76
2022/11/05 10:43:18;;;;;;;10.17;8.20;;;;;;;8.76;100.00;153608.50;5065499;28;20470;-77
2022/11/05 10:46:11;;;;;;;10.50;8.57;;;;;;;8.88;100.00;153639.50;5069554;28;20449;-77
2022/11/05 10:49:20;;;;;;;13.70;9.20;;;;;;;8.97;100.00;153662.81;5071252;28;20448;-78
2022/11/05 10:52:19;;;;;;;9.80;7.20;;;;;;;8.99;100.00;153667.97;5067405;28;20453;-77
2022/11/05 10:55:09;;;;;;;11.30;8.20;;;;;;;8.90;100.00;153644.66;5062960;28;20465;-77
2022/11/05 10:57:56;;;;;;;9.07;6.93;;;;;;;8.90;100.00;153645.97;5055627;28;20449;-77
2022/11/05 11:00:42;;;;;;;9.67;7.90;;;;;;;9.05;100.00;153683.50;5075894;28;20433;-77
2022/11/05 11:03:33;;;;;;;10.87;7.73;;;;;;;9.07;100.00;153688.66;5076420;28;20564;-77
2022/11/05 11:06:26;;;;;;;9.80;7.40;;;;;;;9.08;100.00;153692.50;5073491;28;20535;-77
2022/11/05 11:09:24;;;;;;;8.20;7.30;;;;;;;9.02;100.00;153677.03;5075946;28;20476;-77
2022/11/05 11:12:14;;;;;;;10.10;7.70;;;;;;;9.07;100.00;153688.66;5054957;28;20457;-77
2022/11/05 11:15:01;;;;;;;9.70;7.83;;;;;;;9.10;100.00;153697.72;5068536;28;20607;-77
2022/11/05 11:17:46;;;;;;;8.70;7.70;;;;;;;9.01;100.00;153673.13;5075698;28;20453;-77
2022/11/05 11:20:35;;;;;;;10.37;7.13;;;;;;;9.07;100.00;153688.66;5074459;28;20515;-77
2022/11/05 11:23:20;;;;;;;8.37;7.20;;;;;;;9.01;100.00;153674.44;5075326;28;20900;-77
2022/11/05 11:26:07;;;;;;;8.07;6.33;;;;;;;9.01;100.00;153673.13;5073649;28;20449;-77
2022/11/05 11:28:56;;;;;;;10.23;7.03;;;;;;;9.13;100.00;153704.19;5074445;28;21018;-77
2022/11/05 11:31:42;;;;;;;8.33;6.67;;;;;;;9.08;100.00;153691.25;5060911;28;20508;-77
2022/11/05 11:34:30;;;;;;;8.10;6.40;;;;;;;9.15;100.00;153709.34;5073783;28;20476;-77
2022/11/05 11:37:17;;;;;;;8.30;6.50;;;;;;;9.18;100.00;153717.13;5076258;28;20428;-77
2022/11/05 11:40:06;;;;;;;10.50;6.17;;;;;;;9.23;100.00;153728.75;5057790;28;20456;-77
2022/11/05 11:42:55;;;;;;;9.50;7.10;;;;;;;9.26;100.00;153737.81;5074158;28;20444;-77
2022/11/05 11:45:45;;;;;;;8.30;6.53;;;;;;;9.32;100.00;153753.31;5074777;28;20469;-77
2022/11/05 11:48:31;;;;;;;8.67;7.57;;;;;;;9.34;100.00;153758.50;5075639;28;20468;-77
2022/11/05 11:51:20;;;;;;;11.40;6.43;;;;;;;9.32;100.00;153753.31;5074682;28;20535;-77
2022/11/05 11:54:18;;;;;;;9.77;6.17;;;;;;;9.42;100.00;153779.22;5065867;28;20955;-77
2022/11/05 11:57:22;;;;;;;9.67;7.13;;;;;;;9.41;100.00;153775.31;5055975;28;20414;-77
2022/11/05 12:00:10;;;;;;;7.27;5.53;;;;;;;9.39;100.00;153771.44;5060277;28;20495;-77
2022/11/05 12:03:24;;;;;;;8.30;6.43;;;;;;;9.37;100.00;153764.97;5075324;28;20970;-77
2022/11/05 12:06:15;;;;;;;8.17;6.00;;;;;;;9.29;100.00;153744.28;5075748;28;20504;-77
2022/11/05 12:09:04;;;;;;;8.10;6.03;;;;;;;9.30;100.00;153748.13;5073759;28;20452;-76
2022/11/05 12:11:55;;;;;;;9.10;5.90;;;;;;;9.35;100.00;153759.75;5058253;28;21014;-77
2022/11/05 12:14:48;;;;;;;6.97;6.07;;;;;;;9.35;100.00;153759.75;5072774;28;20536;-77
2022/11/05 12:17:43;;;;;;;8.23;5.77;;;;;;;9.45;100.00;153785.69;5071992;28;20468;-77
2022/11/05 12:20:43;;;;;;;7.57;5.57;;;;;;;9.51;100.00;153802.47;5070440;28;20440;-77
2022/11/05 12:23:42;;;;;;;6.57;5.77;;;;;;;9.47;100.00;153792.13;5073680;28;20557;-77
2022/11/05 12:26:35;;;;;;;9.63;5.13;;;;;;;9.43;100.00;153780.47;5064329;28;20420;-77
2022/11/05 12:29:36;;;;;;;5.87;4.90;;;;;;;9.49;100.00;153796.00;5073749;28;20444;-77
2022/11/05 12:32:53;;;;;;;8.30;6.33;;;;;;;9.47;100.00;153792.13;5075264;28;20444;-77
2022/11/05 12:35:45;;;;;;;5.80;4.97;;;;;;;9.52;100.00;153805.06;5068041;28;20511;-77
2022/11/05 12:38:48;;;;;;;7.90;6.83;;;;;;;9.60;100.00;153824.47;5072149;28;20437;-77
2022/11/05 12:41:40;;;;;;;7.23;5.40;;;;;;;9.63;100.00;153833.53;5071552;28;20494;-77
2022/11/05 12:44:37;;;;;;;7.17;5.60;;;;;;;9.70;100.00;153851.63;5069681;28;20449;-77
2022/11/05 12:47:41;;;;;;;5.97;4.83;;;;;;;9.74;100.00;153861.97;5070078;28;20441;-77
2022/11/05 12:50:33;;;;;;;7.77;5.70;;;;;;;9.76;100.00;153867.19;5053566;28;21070;-77
2022/11/05 12:53:33;;;;;;;7.07;5.80;;;;;;;9.87;100.00;153893.06;5072946;28;20979;-77
2022/11/05 12:56:20;;;;;;;7.23;5.70;;;;;;;9.85;100.00;153887.88;5073814;28;20580;-76
2022/11/05 12:59:13;;;;;;;7.83;6.40;;;;;;;9.88;100.00;153896.91;5068984;28;20506;-77
2022/11/05 13:02:03;;;;;;;7.07;5.37;;;;;;;9.88;100.00;153895.59;5051261;28;20417;-77
2022/11/05 13:04:52;;;;;;;6.57;5.17;;;;;;;9.79;100.00;153874.91;5066365;28;20457;-77
2022/11/05 13:07:40;;;;;;;8.90;5.73;;;;;;;9.80;100.00;153877.50;5064518;28;20415;-77
2022/11/05 13:10:30;;;;;;;7.70;5.87;;;;;;;9.82;100.00;153880.13;5059111;28;20470;-77
2022/11/05 13:13:26;;;;;;;10.53;6.87;;;;;;;9.73;100.00;153858.09;5068177;28;20461;-77
2022/11/05 13:16:13;;;;;;;6.90;5.53;;;;;;;9.72;100.00;153856.81;5065144;28;20445;-77
2022/11/05 13:19:02;;;;;;;6.87;5.30;;;;;;;9.72;100.00;153856.81;5067784;28;20504;-77
2022/11/05 13:21:52;;;;;;;6.97;5.70;;;;;;;9.73;100.00;153858.09;5058344;28;20470;-77
2022/11/05 13:24:40;;;;;;;6.83;5.43;;;;;;;9.70;100.00;153851.63;5069348;28;20559;-77
2022/11/05 13:27:44;;;;;;;8.43;6.70;;;;;;;9.65;100.00;153838.72;5061561;28;20429;-76
2022/11/05 13:30:33;;;;;;;7.23;5.40;;;;;;;9.67;100.00;153843.88;5056401;28;20488;-77
2022/11/05 13:33:22;;;;;;;7.70;5.77;;;;;;;9.64;100.00;153834.81;5071867;28;20456;-76
2022/11/05 13:39:20;;;;;;;6.60;4.80;;;;;;;9.56;100.00;153815.41;5057766;28;20529;-77
2022/11/05 13:42:25;;;;;;;5.63;4.30;;;;;;;9.59;100.00;153823.16;5069323;28;20917;-77
2022/11/05 13:45:27;;;;;;;5.30;4.60;;;;;;;9.57;100.00;153818.00;5072295;28;20425;-76